Time;durP1;ratioP1;P1;durP2;ratioP2;P2;SDS_P1;SDS_P2;PMS_P1;PMS_P2;Temp;Humidity;BMP_temperature;BMP_pressure;BME280_temperature;BME280_humidity;BME280_pressure;Samples;Min_cycle;Max_cycle;Signal;HPM_P1;HPM_P2
2022/09/15 00:02:56;;;;;;;9.60;6.80;;;;;;;15.45;81.12;98755.52;130457;1267;108529;-71
2022/09/15 00:06:02;;;;;;;10.20;6.80;;;;;;;15.45;81.22;98754.55;130417;1268;108897;-71
2022/09/15 00:09:08;;;;;;;9.90;6.70;;;;;;;15.43;81.26;98760.59;130469;1268;108624;-72
2022/09/15 00:12:13;;;;;;;9.60;6.40;;;;;;;15.40;81.53;98755.18;130387;1267;108874;-71
2022/09/15 00:15:19;;;;;;;9.80;7.20;;;;;;;15.40;81.49;98754.80;130552;1267;108942;-74
2022/09/15 00:18:25;;;;;;;9.00;6.50;;;;;;;15.44;81.74;98759.73;130392;1268;108856;-72
2022/09/15 00:21:33;;;;;;;10.00;7.10;;;;;;;15.46;81.68;98762.02;130334;1268;107363;-72
2022/09/15 00:24:39;;;;;;;12.00;7.60;;;;;;;15.47;81.77;98755.66;130512;1268;108547;-72
2022/09/15 00:27:44;;;;;;;11.90;8.30;;;;;;;15.47;82.11;98756.08;130592;1268;107124;-73
2022/09/15 00:30:52;;;;;;;10.10;7.40;;;;;;;15.45;82.20;98751.60;130477;1268;109206;-71
2022/09/15 00:34:01;;;;;;;11.30;8.70;;;;;;;15.47;82.53;98760.52;130435;1267;109057;-74
2022/09/15 00:37:07;;;;;;;11.20;8.30;;;;;;;15.48;82.59;98766.18;130363;1267;108725;-73
2022/09/15 00:40:13;;;;;;;12.40;9.10;;;;;;;15.52;82.51;98766.52;130486;1268;108770;-74
2022/09/15 00:43:39;;;;;;;10.60;8.50;;;;;;;15.55;82.66;98765.42;130437;1268;108937;-71
2022/09/15 00:46:48;;;;;;;9.90;7.20;;;;;;;15.55;82.95;98760.42;130422;1268;108840;-73
2022/09/15 00:49:57;;;;;;;14.30;8.60;;;;;;;15.56;82.83;98755.94;130381;1267;106442;-73
2022/09/15 00:53:07;;;;;;;10.90;7.80;;;;;;;15.59;83.05;98756.27;130452;1267;108697;-75
2022/09/15 00:56:14;;;;;;;10.60;8.00;;;;;;;15.63;83.17;98749.74;130411;1267;108681;-74
2022/09/15 00:59:24;;;;;;;11.00;8.80;;;;;;;15.66;83.29;98748.02;129260;1268;1664338;-72
2022/09/15 01:02:32;;;;;;;15.10;10.10;;;;;;;15.68;83.31;98744.33;130484;1268;109144;-74
2022/09/15 01:05:42;;;;;;;13.00;8.30;;;;;;;15.65;83.77;98743.31;130386;1268;108721;-71
2022/09/15 01:08:51;;;;;;;8.60;7.60;;;;;;;15.60;83.68;98739.10;130363;1268;108212;-72
2022/09/15 01:11:56;;;;;;;9.40;8.40;;;;;;;15.62;83.93;98734.08;130517;1268;108794;-72
2022/09/15 01:15:03;;;;;;;9.50;8.00;;;;;;;15.66;83.85;98728.66;130409;1268;108538;-71
2022/09/15 01:18:16;;;;;;;10.60;8.90;;;;;;;15.70;83.74;98725.05;130387;1268;108999;-72
2022/09/15 01:21:36;;;;;;;11.10;8.50;;;;;;;15.71;83.96;98722.45;130450;1267;108609;-73
2022/09/15 01:24:56;;;;;;;12.40;8.40;;;;;;;15.71;83.96;98718.64;130548;1267;108686;-73
2022/09/15 01:28:28;;;;;;;9.60;7.60;;;;;;;15.71;83.89;98721.70;130535;1268;108617;-74
2022/09/15 01:33:02;;;;;;;10.10;7.80;;;;;;;15.71;84.21;98719.50;130490;1268;108702;-74
2022/09/15 01:35:14;;;;;;;9.50;8.30;;;;;;;15.73;84.09;98714.13;130413;1268;108040;-72
2022/09/15 01:38:27;;;;;;;12.30;9.40;;;;;;;15.75;84.21;98715.44;130510;1268;108522;-72
2022/09/15 01:41:41;;;;;;;11.30;8.30;;;;;;;15.71;84.36;98717.39;130360;1268;108527;-72
2022/09/15 01:44:54;;;;;;;10.30;7.70;;;;;;;15.71;84.34;98710.56;130499;1268;108513;-74
2022/09/15 01:47:58;;;;;;;;;;;;;;;15.73;84.46;98702.04;130479;1267;108608;-72
2022/09/15 01:51:06;;;;;;;9.20;7.70;;;;;;;15.75;84.58;98696.36;130346;1268;108778;-74
2022/09/15 01:54:14;;;;;;;9.60;7.80;;;;;;;15.76;84.48;98695.36;130403;1268;108888;-71
2022/09/15 01:57:21;;;;;;;8.60;7.70;;;;;;;15.76;84.44;98698.30;130427;1268;108572;-72
2022/09/15 02:00:29;;;;;;;9.60;7.10;;;;;;;15.75;84.54;98692.67;130402;1268;107232;-71
2022/09/15 02:03:43;;;;;;;7.70;6.20;;;;;;;15.74;84.69;98682.55;130388;1268;107680;-71
2022/09/15 02:06:56;;;;;;;8.90;7.10;;;;;;;15.73;84.74;98677.55;130471;1268;107265;-72
2022/09/15 02:10:10;;;;;;;9.30;7.20;;;;;;;15.74;84.76;98671.71;130225;1268;108768;-71
2022/09/15 02:13:25;;;;;;;11.10;7.90;;;;;;;15.74;84.90;98665.39;130200;1268;108746;-71
2022/09/15 02:16:33;;;;;;;9.60;7.50;;;;;;;15.71;84.89;98658.14;130198;1268;108597;-74
2022/09/15 02:19:43;;;;;;;8.90;6.60;;;;;;;15.70;84.82;98654.02;130585;1268;108689;-72
2022/09/15 02:22:54;;;;;;;7.50;6.50;;;;;;;15.67;84.90;98650.38;130321;1268;108681;-70
2022/09/15 02:26:03;;;;;;;8.40;6.80;;;;;;;15.65;85.04;98650.11;130356;1268;108943;-71
2022/09/15 02:29:13;;;;;;;9.20;7.70;;;;;;;15.66;85.07;98648.77;130280;1268;108693;-70
2022/09/15 02:32:23;;;;;;;11.60;9.00;;;;;;;15.62;85.54;98654.41;130210;1268;108704;-70
2022/09/15 02:35:32;;;;;;;10.80;8.70;;;;;;;15.49;85.43;98662.13;130282;1268;109592;-70
2022/09/15 02:38:44;;;;;;;9.80;7.70;;;;;;;15.41;85.69;98666.23;130324;1268;108649;-71
2022/09/15 02:41:51;;;;;;;12.20;8.40;;;;;;;15.36;85.96;98669.30;130326;1267;108899;-70
2022/09/15 02:44:57;;;;;;;11.10;8.20;;;;;;;15.29;86.17;98671.35;130355;1268;108435;-70
2022/09/15 02:48:03;;;;;;;10.40;7.80;;;;;;;15.25;86.25;98671.40;130353;1268;108705;-71
2022/09/15 02:51:09;;;;;;;8.80;7.70;;;;;;;15.24;86.18;98672.81;130379;1268;108599;-72
2022/09/15 02:54:15;;;;;;;10.00;8.10;;;;;;;15.24;86.50;98674.02;132317;1267;109007;-72
2022/09/15 02:57:20;;;;;;;10.80;7.60;;;;;;;15.17;87.09;98679.86;130522;1268;108677;-70
2022/09/15 03:00:27;;;;;;;8.40;6.60;;;;;;;15.11;86.59;98684.84;130458;1268;107601;-72
2022/09/15 03:03:33;;;;;;;10.50;7.50;;;;;;;15.13;86.82;98677.92;130432;1268;108858;-72
2022/09/15 03:06:38;;;;;;;9.50;7.70;;;;;;;15.20;86.72;98673.83;130419;1268;108838;-72
2022/09/15 03:09:43;;;;;;;10.40;8.30;;;;;;;15.21;87.03;98670.74;130518;1268;108823;-72
2022/09/15 03:12:51;;;;;;;11.60;8.30;;;;;;;15.14;86.99;98672.20;130508;1268;108716;-72
2022/09/15 03:15:56;;;;;;;11.50;8.80;;;;;;;15.07;87.13;98674.62;130364;1268;108969;-72
2022/09/15 03:19:02;;;;;;;10.00;8.90;;;;;;;15.03;87.35;98677.77;130359;1268;108833;-71
2022/09/15 03:22:08;;;;;;;12.00;10.50;;;;;;;15.01;87.68;98677.65;130346;1267;109158;-71
2022/09/15 03:25:13;;;;;;;13.60;10.40;;;;;;;14.96;88.20;98680.77;130422;1268;108313;-70
2022/09/15 03:28:19;;;;;;;10.00;8.40;;;;;;;14.90;88.09;98685.36;130360;1268;108808;-71
2022/09/15 03:31:24;;;;;;;9.80;8.00;;;;;;;14.86;87.96;98684.94;130387;1268;109020;-73
2022/09/15 03:34:29;;;;;;;10.60;8.20;;;;;;;14.86;87.92;98688.24;130470;1267;108776;-72
2022/09/15 03:37:35;;;;;;;10.80;8.40;;;;;;;14.90;88.20;98696.30;130454;1267;108725;-71
2022/09/15 03:40:42;;;;;;;11.30;8.40;;;;;;;14.87;88.74;98694.67;130391;1268;108720;-70
2022/09/15 03:43:47;;;;;;;11.30;7.80;;;;;;;14.82;88.28;98692.61;130404;1268;109082;-72
2022/09/15 03:46:52;;;;;;;11.60;8.00;;;;;;;14.77;88.24;98692.73;130377;1268;108642;-71
2022/09/15 03:49:58;;;;;;;10.10;7.90;;;;;;;14.76;88.32;98693.33;130377;1268;109619;-70
2022/09/15 03:53:04;;;;;;;8.50;6.70;;;;;;;14.76;88.30;98688.51;130318;1268;108743;-73
2022/09/15 03:56:18;;;;;;;10.30;7.50;;;;;;;14.80;88.04;98687.18;130336;1268;108828;-72
2022/09/15 03:59:23;;;;;;;8.40;6.10;;;;;;;14.80;87.96;98681.27;130271;1268;107680;-71
2022/09/15 04:02:28;;;;;;;6.80;5.20;;;;;;;14.85;87.86;98679.08;130249;1268;108715;-70
2022/09/15 04:05:34;;;;;;;8.20;5.40;;;;;;;14.91;87.85;98678.58;130242;1268;108707;-71
2022/09/15 04:08:39;;;;;;;7.60;5.60;;;;;;;14.97;87.46;98676.25;130355;1268;108562;-74
2022/09/15 04:11:45;;;;;;;7.10;5.50;;;;;;;15.02;87.77;98675.01;130447;1268;108847;-71
2022/09/15 04:14:50;;;;;;;6.50;5.50;;;;;;;15.06;87.49;98674.36;130462;1267;108746;-73
2022/09/15 04:17:56;;;;;;;7.10;4.90;;;;;;;15.07;87.64;98667.36;130367;1268;108682;-71
2022/09/15 04:21:03;;;;;;;6.20;4.90;;;;;;;15.08;87.57;98662.67;130404;1268;109010;-71
2022/09/15 04:24:08;;;;;;;7.50;5.00;;;;;;;15.11;87.47;98664.21;130327;1268;109005;-70
2022/09/15 04:27:13;;;;;;;7.00;5.80;;;;;;;15.15;87.40;98663.19;130413;1268;109468;-71
2022/09/15 04:30:20;;;;;;;8.00;5.90;;;;;;;15.15;87.11;98662.09;130425;1268;108799;-73
2022/09/15 04:33:25;;;;;;;7.30;5.00;;;;;;;15.11;87.27;98668.19;130370;1268;108729;-70
2022/09/15 04:36:31;;;;;;;7.00;5.20;;;;;;;15.10;87.36;98659.14;130316;1268;108662;-71
2022/09/15 04:39:36;;;;;;;6.10;4.90;;;;;;;15.12;87.37;98657.30;130426;1268;107655;-73
2022/09/15 04:42:42;;;;;;;6.40;5.00;;;;;;;15.15;87.52;98662.13;130444;1267;108751;-77
2022/09/15 04:45:48;;;;;;;7.30;5.20;;;;;;;15.15;87.36;98665.52;130395;1268;108704;-76
2022/09/15 04:48:53;;;;;;;9.70;5.60;;;;;;;15.15;87.46;98670.63;130389;1268;108904;-76
2022/09/15 04:51:59;;;;;;;6.20;4.30;;;;;;;15.13;87.31;98673.87;130398;1268;108928;-76
2022/09/15 04:55:05;;;;;;;6.50;4.70;;;;;;;15.11;87.28;98675.49;130457;1268;108583;-75
2022/09/15 04:58:11;;;;;;;6.90;4.20;;;;;;;15.11;87.13;98679.09;130295;1267;108868;-75
2022/09/15 05:01:19;;;;;;;6.80;4.40;;;;;;;15.12;87.17;98678.64;130427;1268;108241;-75
2022/09/15 05:04:24;;;;;;;6.70;4.70;;;;;;;15.14;86.90;98673.73;130357;1268;109137;-75
2022/09/15 05:07:29;;;;;;;5.50;3.80;;;;;;;15.15;87.09;98672.00;130366;1267;108694;-76
2022/09/15 05:10:37;;;;;;;6.10;3.80;;;;;;;15.15;86.97;98676.64;130373;1268;108419;-75
2022/09/15 05:13:42;;;;;;;5.30;3.00;;;;;;;15.15;87.10;98673.36;130444;1267;108630;-75
2022/09/15 05:16:48;;;;;;;5.40;3.80;;;;;;;15.17;87.07;98674.49;130382;1268;108627;-78
2022/09/15 05:19:53;;;;;;;5.90;4.40;;;;;;;15.20;87.01;98679.22;130419;1268;109064;-75
2022/09/15 05:22:59;;;;;;;6.10;4.30;;;;;;;15.21;87.03;98680.73;130349;1268;108765;-77
2022/09/15 05:26:07;;;;;;;5.40;4.20;;;;;;;15.22;87.01;98677.76;130389;1268;108646;-77
2022/09/15 05:29:12;;;;;;;8.90;3.70;;;;;;;15.20;86.72;98686.24;130414;1268;108634;-75
2022/09/15 05:32:18;;;;;;;6.20;3.70;;;;;;;15.18;87.02;98691.13;130445;1268;108846;-75
2022/09/15 05:35:23;;;;;;;7.00;4.10;;;;;;;15.20;87.10;98690.51;130389;1268;108916;-77
2022/09/15 05:38:31;;;;;;;7.60;3.90;;;;;;;15.25;86.97;98688.89;130331;1267;108936;-78
2022/09/15 05:41:36;;;;;;;5.90;4.00;;;;;;;15.29;86.78;98696.21;130303;1272;108733;-76
2022/09/15 05:44:42;;;;;;;6.00;4.00;;;;;;;15.31;86.76;98698.61;130445;1268;108745;-75
2022/09/15 05:47:47;;;;;;;6.30;3.70;;;;;;;15.32;86.97;98697.95;130331;1268;108680;-76
2022/09/15 05:50:54;;;;;;;7.30;4.10;;;;;;;15.36;86.72;98697.99;130345;1268;108839;-75
2022/09/15 05:53:59;;;;;;;6.40;3.40;;;;;;;15.37;86.64;98693.85;130456;1268;109723;-75
2022/09/15 05:57:05;;;;;;;5.60;3.50;;;;;;;15.42;86.82;98696.05;130379;1268;108578;-76
2022/09/15 06:00:13;;;;;;;4.70;3.20;;;;;;;15.47;86.59;98693.41;130372;1268;108677;-75
2022/09/15 06:03:19;;;;;;;5.60;3.40;;;;;;;15.52;86.57;98687.20;130393;1268;108714;-76
2022/09/15 06:06:25;;;;;;;5.80;3.10;;;;;;;15.56;86.63;98679.42;130322;1268;108305;-76
2022/09/15 06:09:31;;;;;;;6.40;3.80;;;;;;;15.57;86.43;98683.54;130404;1268;109412;-75
2022/09/15 06:12:36;;;;;;;5.40;3.10;;;;;;;15.55;86.44;98687.23;130400;1268;108926;-75
2022/09/15 06:15:42;;;;;;;6.00;3.20;;;;;;;15.61;86.50;98684.13;130403;1268;108976;-76
2022/09/15 06:18:49;;;;;;;6.30;3.70;;;;;;;15.68;86.45;98694.34;130375;1268;108114;-75
2022/09/15 06:21:54;;;;;;;5.40;3.50;;;;;;;15.73;86.13;98695.29;130484;1268;108665;-75
2022/09/15 06:24:59;;;;;;;7.90;3.90;;;;;;;15.68;86.13;98702.14;130364;1268;108849;-76
2022/09/15 06:28:05;;;;;;;6.10;3.50;;;;;;;15.65;86.34;98701.78;130446;1268;108687;-76
2022/09/15 06:31:14;;;;;;;5.20;3.30;;;;;;;15.70;86.43;98705.64;130331;1268;109013;-75
2022/09/15 06:34:19;;;;;;;6.70;3.30;;;;;;;15.75;86.60;98702.84;130405;1268;107842;-76
2022/09/15 06:37:25;;;;;;;6.10;3.80;;;;;;;15.89;86.54;98711.05;130423;1268;107646;-75
2022/09/15 06:40:30;;;;;;;8.70;3.90;;;;;;;15.98;86.15;98711.84;130320;1268;108900;-75
2022/09/15 06:43:36;;;;;;;6.60;4.00;;;;;;;15.98;86.09;98710.02;130387;1268;108727;-77
2022/09/15 06:46:41;;;;;;;7.50;3.60;;;;;;;15.99;86.32;98715.69;130313;1268;108980;-75
2022/09/15 06:49:46;;;;;;;7.80;3.60;;;;;;;16.08;86.40;98708.08;130332;1268;108780;-76
2022/09/15 06:52:52;;;;;;;7.70;3.60;;;;;;;16.21;86.30;98714.36;130420;1268;108821;-75
2022/09/15 06:56:00;;;;;;;6.30;4.20;;;;;;;16.28;86.08;98722.34;130332;1268;108941;-76
2022/09/15 06:59:06;;;;;;;8.90;4.50;;;;;;;16.29;86.12;98723.41;130568;1267;108616;-75
2022/09/15 07:02:16;;;;;;;6.60;3.90;;;;;;;16.31;85.72;98726.03;132211;1267;108721;-75
2022/09/15 07:05:24;;;;;;;7.80;3.80;;;;;;;16.32;85.94;98729.05;132943;1267;109036;-76
2022/09/15 07:08:29;;;;;;;6.60;4.00;;;;;;;16.38;85.63;98731.27;130379;1268;108905;-78
2022/09/15 07:11:35;;;;;;;6.30;3.90;;;;;;;16.35;85.80;98730.78;130482;1268;108701;-77
2022/09/15 07:14:41;;;;;;;6.10;4.10;;;;;;;16.42;85.72;98728.70;130383;1268;108758;-77
2022/09/15 07:17:47;;;;;;;6.80;4.60;;;;;;;16.51;85.72;98728.53;130319;1268;109288;-76
2022/09/15 07:20:57;;;;;;;7.10;4.40;;;;;;;16.53;85.25;98734.38;130383;1268;108889;-76
2022/09/15 07:24:03;;;;;;;9.10;4.90;;;;;;;16.49;85.24;98738.20;130425;1268;108553;-76
2022/09/15 07:27:09;;;;;;;6.20;4.30;;;;;;;16.50;85.59;98740.06;130363;1268;108909;-77
2022/09/15 07:30:15;;;;;;;5.90;4.20;;;;;;;16.62;85.71;98744.73;130434;1268;108645;-76
2022/09/15 07:33:21;;;;;;;7.20;4.10;;;;;;;16.68;85.24;98747.05;130432;1268;108798;-76
2022/09/15 07:36:26;;;;;;;6.10;4.30;;;;;;;16.82;85.51;98744.67;130374;1268;108568;-76
2022/09/15 07:39:32;;;;;;;6.70;4.30;;;;;;;16.93;84.86;98742.10;130402;1268;107862;-77
2022/09/15 07:42:37;;;;;;;7.70;4.80;;;;;;;16.99;85.27;98745.10;130343;1268;108642;-77
2022/09/15 07:45:43;;;;;;;10.30;7.40;;;;;;;17.09;84.85;98751.92;130353;1268;108740;-77
2022/09/15 07:48:50;;;;;;;9.00;5.00;;;;;;;17.10;84.61;98759.20;130372;1268;108129;-76
2022/09/15 07:51:55;;;;;;;6.70;4.40;;;;;;;17.03;84.56;98761.09;130399;1268;108662;-76
2022/09/15 07:55:01;;;;;;;8.00;4.40;;;;;;;16.93;84.52;98761.59;130333;1268;108757;-76
2022/09/15 07:58:06;;;;;;;5.70;3.80;;;;;;;16.88;84.72;98761.92;130410;1268;109427;-77
2022/09/15 08:01:13;;;;;;;9.20;4.30;;;;;;;16.84;84.48;98761.88;130456;1268;108524;-77
2022/09/15 08:04:19;;;;;;;10.60;5.70;;;;;;;16.89;84.62;98761.83;130470;1268;108787;-77
2022/09/15 08:07:25;;;;;;;9.90;5.20;;;;;;;16.91;84.19;98766.19;130367;1268;108527;-76
2022/09/15 08:10:30;;;;;;;7.20;4.80;;;;;;;16.77;83.46;98771.95;130358;1268;107780;-76
2022/09/15 08:13:36;;;;;;;8.90;4.20;;;;;;;16.66;84.14;98773.34;130398;1268;109190;-77
2022/09/15 08:16:42;;;;;;;8.20;4.40;;;;;;;16.63;83.86;98784.20;130468;1268;108570;-76
2022/09/15 08:19:48;;;;;;;7.30;4.00;;;;;;;16.70;83.97;98781.83;130333;1268;108545;-77
2022/09/15 08:22:54;;;;;;;5.60;3.00;;;;;;;16.76;83.06;98776.55;130387;1268;108742;-77
2022/09/15 08:26:00;;;;;;;5.70;3.90;;;;;;;16.80;83.34;98776.10;130457;1268;108833;-77
2022/09/15 08:29:06;;;;;;;5.90;3.70;;;;;;;16.85;82.13;98778.65;130473;1268;108722;-76
2022/09/15 08:32:11;;;;;;;5.60;3.50;;;;;;;16.82;82.48;98774.42;130414;1268;108700;-77
2022/09/15 08:35:18;;;;;;;6.10;3.30;;;;;;;16.80;81.96;98779.04;130366;1268;108694;-76
2022/09/15 08:38:24;;;;;;;8.20;3.60;;;;;;;16.80;81.97;98777.20;130345;1267;108718;-77
2022/09/15 08:41:33;;;;;;;8.70;3.40;;;;;;;16.76;80.09;98776.43;130398;1268;108667;-77
2022/09/15 08:44:45;;;;;;;5.10;3.20;;;;;;;16.75;80.24;98776.73;130439;1268;108989;-76
2022/09/15 08:47:55;;;;;;;8.00;3.40;;;;;;;16.79;80.60;98777.93;130343;1268;108725;-76
2022/09/15 08:51:04;;;;;;;6.30;3.40;;;;;;;16.84;80.88;98782.92;130407;1268;108819;-76
2022/09/15 08:54:16;;;;;;;5.90;2.80;;;;;;;16.86;78.73;98791.23;130382;1268;108638;-77
2022/09/15 08:57:25;;;;;;;5.60;2.60;;;;;;;16.81;78.70;98790.95;130222;1268;107697;-76
2022/09/15 09:00:32;;;;;;;7.30;3.00;;;;;;;16.81;78.06;98784.79;130361;1268;108827;-76
2022/09/15 09:03:55;;;;;;;5.20;2.30;;;;;;;16.90;79.71;98786.69;130383;1268;109117;-76
2022/09/15 09:07:14;;;;;;;6.00;2.30;;;;;;;17.10;79.25;98792.20;130352;1268;108563;-76
2022/09/15 09:10:31;;;;;;;5.00;2.40;;;;;;;17.23;78.30;98793.50;130372;1268;108778;-79
2022/09/15 09:13:44;;;;;;;4.20;2.50;;;;;;;17.24;75.87;98795.09;130345;1268;108983;-76
2022/09/15 09:17:03;;;;;;;5.00;2.30;;;;;;;17.22;76.88;98797.57;130424;1268;109000;-77
2022/09/15 09:20:30;;;;;;;5.70;2.40;;;;;;;17.34;77.70;98793.73;130317;1268;108726;-77
2022/09/15 09:23:43;;;;;;;4.70;1.90;;;;;;;17.47;77.55;98790.40;130409;1268;108731;-77
2022/09/15 09:26:53;;;;;;;6.40;2.20;;;;;;;17.64;76.95;98786.27;130362;1268;108911;-77
2022/09/15 09:30:02;;;;;;;6.90;2.20;;;;;;;17.81;76.36;98780.55;130396;1267;108656;-77
2022/09/15 09:33:22;;;;;;;3.60;2.10;;;;;;;18.00;77.11;98780.75;130443;1268;109112;-76
2022/09/15 09:36:28;;;;;;;4.20;1.80;;;;;;;18.10;75.87;98785.11;130365;1268;109168;-77
2022/09/15 09:39:34;;;;;;;3.80;1.70;;;;;;;18.12;76.11;98783.36;130410;1268;108749;-76
2022/09/15 09:42:40;;;;;;;6.10;2.10;;;;;;;18.19;76.00;98778.73;130387;1267;107240;-76
2022/09/15 09:45:46;;;;;;;4.40;1.80;;;;;;;18.27;75.36;98782.23;130259;1268;109721;-76
2022/09/15 09:48:57;;;;;;;3.10;1.80;;;;;;;18.34;74.96;98781.09;130500;1268;107473;-76
2022/09/15 09:52:03;;;;;;;4.60;2.00;;;;;;;18.40;70.97;98781.30;130400;1268;108466;-76
2022/09/15 09:55:23;;;;;;;3.30;1.70;;;;;;;18.36;71.02;98776.42;130459;1268;108742;-76
2022/09/15 09:58:28;;;;;;;3.70;1.70;;;;;;;18.42;73.38;98777.50;130425;1268;108714;-76
2022/09/15 10:01:34;;;;;;;4.80;1.70;;;;;;;18.60;72.13;98777.45;130443;1268;108662;-77
2022/09/15 10:04:41;;;;;;;4.30;1.70;;;;;;;18.72;72.48;98776.29;130449;1268;107554;-76
2022/09/15 10:07:47;;;;;;;2.70;1.80;;;;;;;18.89;72.22;98776.17;130351;1268;108905;-77
2022/09/15 10:10:55;;;;;;;4.90;1.70;;;;;;;18.84;71.23;98779.27;130374;1268;108727;-76
2022/09/15 10:14:01;;;;;;;4.80;1.80;;;;;;;18.70;71.49;98773.96;130434;1268;109270;-76
2022/09/15 10:17:10;;;;;;;2.50;1.20;;;;;;;18.65;71.41;98775.34;130365;1268;108533;-76
2022/09/15 10:20:32;;;;;;;2.60;1.50;;;;;;;18.86;71.87;98778.93;130373;1268;108979;-76
2022/09/15 10:23:37;;;;;;;7.30;2.50;;;;;;;19.11;71.54;98779.73;130386;1268;108971;-76
2022/09/15 10:26:43;;;;;;;3.50;1.30;;;;;;;19.21;70.85;98775.64;130357;1268;108637;-76
2022/09/15 10:29:49;;;;;;;3.10;1.60;;;;;;;19.13;69.78;98778.15;130373;1268;108694;-77
2022/09/15 10:32:54;;;;;;;2.40;1.30;;;;;;;19.09;70.20;98768.34;130440;1268;108732;-77
2022/09/15 10:36:04;;;;;;;2.80;1.40;;;;;;;19.03;67.07;98767.65;130229;1268;108708;-77
2022/09/15 10:39:23;;;;;;;2.90;1.40;;;;;;;18.91;67.70;98768.48;130358;1268;108643;-77
2022/09/15 10:42:39;;;;;;;2.70;1.40;;;;;;;18.87;70.06;98764.96;130345;1267;108660;-77
2022/09/15 10:45:48;;;;;;;3.80;1.70;;;;;;;18.91;69.42;98766.41;130334;1267;109064;-77
2022/09/15 10:49:12;;;;;;;2.20;1.60;;;;;;;18.84;69.48;98765.60;130389;1267;108674;-79
2022/09/15 10:52:29;;;;;;;2.60;1.50;;;;;;;18.87;69.13;98760.63;130341;1267;109066;-78
2022/09/15 10:55:45;;;;;;;2.20;1.30;;;;;;;19.03;67.87;98763.33;130328;1267;108979;-78
2022/09/15 10:59:21;;;;;;;2.10;1.40;;;;;;;19.19;68.07;98767.42;130208;1268;109002;-78
2022/09/15 11:02:48;;;;;;;3.30;1.40;;;;;;;19.27;68.21;98763.55;130332;1267;108713;-78
2022/09/15 11:06:10;;;;;;;3.40;1.30;;;;;;;19.16;67.48;98767.07;130432;1268;108610;-78
2022/09/15 11:09:23;;;;;;;3.00;1.70;;;;;;;19.15;66.79;98774.73;130325;1267;108684;-78
2022/09/15 11:12:43;;;;;;;3.00;1.50;;;;;;;19.05;65.45;98769.36;130477;1268;108852;-78
2022/09/15 11:15:59;;;;;;;3.60;1.70;;;;;;;18.99;66.66;98765.91;130433;1267;108718;-78
2022/09/15 11:19:21;;;;;;;3.20;1.50;;;;;;;19.05;66.95;98763.91;130315;1267;108724;-79
2022/09/15 11:22:33;;;;;;;3.50;1.50;;;;;;;19.12;64.98;98760.06;130450;1267;108684;-78
2022/09/15 11:25:43;;;;;;;3.30;1.30;;;;;;;19.24;67.12;98757.29;130408;1267;108685;-78
2022/09/15 11:28:55;;;;;;;3.40;1.60;;;;;;;19.42;66.78;98752.91;130403;1267;108737;-77
2022/09/15 11:32:09;;;;;;;3.30;1.40;;;;;;;19.39;65.43;98749.20;130354;1267;108609;-77
2022/09/15 11:35:37;;;;;;;3.10;1.50;;;;;;;19.40;65.83;98750.13;130442;1267;108611;-77
2022/09/15 11:38:48;;;;;;;3.20;1.50;;;;;;;19.36;64.29;98749.85;130314;1267;108985;-76
2022/09/15 11:41:59;;;;;;;2.70;1.40;;;;;;;19.22;64.50;98761.36;130379;1267;108929;-78
2022/09/15 11:45:13;;;;;;;2.90;1.40;;;;;;;19.05;64.64;98771.42;130420;1267;108785;-79
2022/09/15 11:48:24;;;;;;;4.30;1.60;;;;;;;18.94;64.83;98774.38;130351;1268;108735;-78
2022/09/15 11:51:34;;;;;;;3.70;1.50;;;;;;;18.86;64.78;98768.98;130381;1267;108586;-77
2022/09/15 11:54:46;;;;;;;2.30;1.40;;;;;;;18.77;65.46;98764.11;130364;1268;108190;-78
2022/09/15 11:57:59;;;;;;;2.60;1.60;;;;;;;18.72;65.00;98767.79;130282;1268;108594;-78
2022/09/15 12:01:14;;;;;;;3.60;1.20;;;;;;;18.63;65.58;98770.39;130321;1268;107685;-78
2022/09/15 12:04:25;;;;;;;2.10;1.30;;;;;;;18.61;65.70;98774.89;130360;1268;108692;-78
2022/09/15 12:07:36;;;;;;;3.40;1.50;;;;;;;18.62;65.87;98771.77;130365;1265;108936;-77
2022/09/15 12:10:46;;;;;;;2.90;1.50;;;;;;;18.63;66.00;98774.07;130417;1268;108679;-77
2022/09/15 12:13:54;;;;;;;4.80;1.60;;;;;;;18.69;65.87;98775.02;130411;1267;108866;-77
2022/09/15 12:17:00;;;;;;;2.80;1.40;;;;;;;18.68;66.05;98773.55;130393;1267;108553;-77
2022/09/15 12:20:16;;;;;;;3.20;1.40;;;;;;;18.64;65.85;98780.91;130377;1268;108581;-77
2022/09/15 12:23:31;;;;;;;2.80;1.50;;;;;;;18.61;65.97;98777.11;130385;1268;108046;-77
2022/09/15 12:26:37;;;;;;;4.10;1.50;;;;;;;18.54;65.79;98772.70;130346;1267;108743;-77
2022/09/15 12:29:49;;;;;;;4.00;1.60;;;;;;;18.44;65.88;98774.68;130399;1268;108509;-77
2022/09/15 12:32:57;;;;;;;2.90;1.40;;;;;;;18.38;66.24;98772.83;130424;1268;108431;-77
2022/09/15 12:36:49;;;;;;;4.50;1.60;;;;;;;18.40;66.14;98777.09;130312;1268;109312;-77
2022/09/15 12:39:55;;;;;;;3.00;1.30;;;;;;;18.41;66.20;98775.43;130027;1272;108676;-77
2022/09/15 12:43:03;;;;;;;5.30;1.80;;;;;;;18.46;66.36;98775.52;129907;1273;109038;-77
2022/09/15 12:46:18;;;;;;;2.40;1.80;;;;;;;18.48;66.21;98770.91;130459;1268;108821;-77
2022/09/15 12:49:31;;;;;;;3.10;1.90;;;;;;;18.51;66.35;98764.07;130393;1268;108676;-77
2022/09/15 12:52:45;;;;;;;4.60;1.70;;;;;;;18.53;66.15;98771.29;130377;1267;108781;-77
2022/09/15 12:55:54;;;;;;;3.20;1.60;;;;;;;18.52;65.85;98771.86;130364;1267;108666;-77
2022/09/15 12:59:05;;;;;;;4.10;1.90;;;;;;;18.55;66.16;98771.42;130433;1268;108804;-78
2022/09/15 13:02:44;;;;;;;5.10;2.10;;;;;;;18.66;66.13;98769.90;128977;1268;108481;-78
2022/09/15 13:06:08;;;;;;;2.90;1.90;;;;;;;18.77;65.98;98770.80;130394;1268;108710;-77
2022/09/15 13:09:42;;;;;;;3.60;1.60;;;;;;;18.86;65.91;98770.92;130346;1267;108762;-78
2022/09/15 13:12:55;;;;;;;3.30;1.60;;;;;;;18.96;65.96;98764.95;130381;1267;108713;-78
2022/09/15 13:16:06;;;;;;;4.30;2.10;;;;;;;19.03;65.86;98765.06;130383;1267;108677;-77
2022/09/15 13:19:15;;;;;;;4.80;2.40;;;;;;;19.02;65.38;98764.71;130389;1267;108706;-77
2022/09/15 13:22:28;;;;;;;3.90;2.00;;;;;;;18.99;65.70;98762.25;130372;1268;108676;-77
2022/09/15 13:25:35;;;;;;;4.60;2.30;;;;;;;19.00;65.35;98752.30;130322;1267;108832;-77
2022/09/15 13:28:42;;;;;;;3.40;2.30;;;;;;;19.01;65.39;98748.65;130414;1267;108715;-77
2022/09/15 13:31:55;;;;;;;4.10;2.10;;;;;;;19.04;65.24;98750.38;130388;1267;108715;-77
2022/09/15 13:35:27;;;;;;;3.30;1.90;;;;;;;19.03;65.07;98751.71;130330;1267;108741;-77
2022/09/15 13:38:52;;;;;;;;;;;;;;;19.11;65.36;98750.91;130407;1267;108866;-76
2022/09/15 13:42:12;;;;;;;4.10;1.70;;;;;;;19.16;65.28;98743.92;130384;1267;108708;-71
2022/09/15 13:45:38;;;;;;;5.40;1.70;;;;;;;19.20;64.79;98734.29;130364;1267;108747;-73
2022/09/15 13:49:03;;;;;;;4.20;2.30;;;;;;;19.17;64.86;98727.61;130600;1268;107676;-72
2022/09/15 13:52:26;;;;;;;3.10;1.80;;;;;;;19.08;63.23;98722.54;130478;1268;108804;-73
2022/09/15 13:55:34;;;;;;;4.80;2.60;;;;;;;18.99;64.14;98723.48;130346;1268;108793;-74
2022/09/15 13:58:43;;;;;;;4.10;2.30;;;;;;;18.97;64.28;98719.02;130342;1268;107703;-75
2022/09/15 14:01:48;;;;;;;4.10;2.00;;;;;;;18.94;64.10;98718.58;130425;1267;109731;-71
2022/09/15 14:04:54;;;;;;;3.30;1.90;;;;;;;18.91;64.02;98722.37;130274;1268;108746;-73
2022/09/15 14:08:05;;;;;;;2.90;1.70;;;;;;;18.85;64.40;98717.89;130298;1268;107279;-73
2022/09/15 14:11:14;;;;;;;3.10;1.70;;;;;;;18.89;64.12;98718.77;130408;1267;108721;-74
2022/09/15 14:14:37;;;;;;;3.80;1.80;;;;;;;18.92;64.28;98718.55;130462;1268;107695;-72
2022/09/15 14:17:47;;;;;;;3.30;1.90;;;;;;;19.00;64.34;98721.65;130377;1268;108782;-75
2022/09/15 14:21:02;;;;;;;4.00;2.00;;;;;;;18.97;63.86;98717.33;130382;1268;108687;-75
2022/09/15 14:24:18;;;;;;;4.50;2.10;;;;;;;18.92;64.29;98719.95;130474;1267;108608;-74
2022/09/15 14:27:26;;;;;;;2.10;1.50;;;;;;;18.96;64.52;98720.58;130413;1267;108863;-73
2022/09/15 14:30:32;;;;;;;2.50;1.60;;;;;;;18.97;64.24;98716.25;130510;1267;108795;-73
2022/09/15 14:33:41;;;;;;;3.20;1.60;;;;;;;18.93;64.37;98717.98;130457;1267;108773;-73